Time;durP1;ratioP1;P1;durP2;ratioP2;P2;SDS_P1;SDS_P2;PMS_P1;PMS_P2;Temp;Humidity;BMP_temperature;BMP_pressure;BME280_temperature;BME280_humidity;BME280_pressure;Samples;Min_cycle;Max_cycle;Signal;HPM_P1;HPM_P2
2021/01/23 00:00:52;;;;;;;15.77;6.37;;;;;;;;;;5132689;28;20015;-84
2021/01/23 00:03:18;;;;;;;17.10;6.03;;;;;;;;;;5131690;28;20027;-84
2021/01/23 00:05:43;;;;;;;17.37;7.20;;;;;;;;;;5131482;28;20019;-84
2021/01/23 00:08:09;;;;;;;14.13;6.83;;;;;;;;;;5131602;28;20027;-84
2021/01/23 00:10:34;;;;;;;13.00;5.17;;;;;;;;;;5132655;28;20019;-84
2021/01/23 00:12:59;;;;;;;12.03;6.07;;;;;;;;;;5131614;28;20023;-84
2021/01/23 00:15:24;;;;;;;16.03;5.83;;;;;;;;;;5132708;28;20026;-84
2021/01/23 00:17:49;;;;;;;12.63;5.70;;;;;;;;;;5131536;28;20018;-84
2021/01/23 00:20:15;;;;;;;11.37;5.60;;;;;;;;;;5131062;28;20385;-83
2021/01/23 00:22:40;;;;;;;13.83;5.37;;;;;;;;;;5132648;28;20012;-84
2021/01/23 00:25:06;;;;;;;15.57;6.17;;;;;;;;;;5133033;27;20100;-84
2021/01/23 00:27:31;;;;;;;13.97;5.70;;;;;;;;;;5131175;28;20093;-84
2021/01/23 00:29:58;;;;;;;14.07;5.47;;;;;;;;;;5127450;28;20020;-83
2021/01/23 00:32:23;;;;;;;13.07;5.80;;;;;;;;;;5116775;28;20047;-84
2021/01/23 00:34:48;;;;;;;14.07;5.47;;;;;;;;;;5127962;28;20055;-84
2021/01/23 00:37:13;;;;;;;14.40;5.17;;;;;;;;;;5131393;28;20022;-84
2021/01/23 00:39:39;;;;;;;18.57;5.47;;;;;;;;;;5131413;28;20026;-84
2021/01/23 00:42:04;;;;;;;10.93;5.20;;;;;;;;;;5131239;28;20026;-84
2021/01/23 00:44:29;;;;;;;16.43;5.70;;;;;;;;;;5131585;28;20050;-84
2021/01/23 00:46:55;;;;;;;13.73;5.30;;;;;;;;;;5130559;28;20019;-84
2021/01/23 00:49:21;;;;;;;9.33;4.80;;;;;;;;;;5131430;28;20034;-84
2021/01/23 00:51:46;;;;;;;16.77;5.73;;;;;;;;;;5132471;27;20029;-84
2021/01/23 00:54:11;;;;;;;11.63;5.23;;;;;;;;;;5131094;28;20030;-84
2021/01/23 00:56:37;;;;;;;10.80;4.73;;;;;;;;;;5131075;28;20462;-83
2021/01/23 00:59:02;;;;;;;11.63;5.00;;;;;;;;;;5133098;27;20019;-84
2021/01/23 01:01:28;;;;;;;13.07;4.93;;;;;;;;;;5136326;27;20533;-84
2021/01/23 01:03:53;;;;;;;12.63;5.27;;;;;;;;;;5134837;27;20019;-84
2021/01/23 01:06:18;;;;;;;15.00;5.27;;;;;;;;;;5134806;27;20071;-84
2021/01/23 01:08:43;;;;;;;12.30;5.50;;;;;;;;;;5134662;27;20370;-84
2021/01/23 01:11:08;;;;;;;12.00;5.27;;;;;;;;;;5134698;27;20034;-83
2021/01/23 01:13:34;;;;;;;15.93;6.07;;;;;;;;;;5134769;27;20015;-84
2021/01/23 01:15:59;;;;;;;14.50;6.43;;;;;;;;;;5134173;27;20485;-84
2021/01/23 01:18:24;;;;;;;15.03;5.97;;;;;;;;;;5134649;27;20016;-84
2021/01/23 01:20:49;;;;;;;11.63;4.70;;;;;;;;;;5134147;27;20003;-84
2021/01/23 01:23:15;;;;;;;13.73;5.37;;;;;;;;;;5134414;27;20106;-84
2021/01/23 01:25:40;;;;;;;12.23;5.80;;;;;;;;;;5134237;27;20029;-84
2021/01/23 01:28:05;;;;;;;9.90;5.80;;;;;;;;;;5134124;27;20049;-84
2021/01/23 01:30:30;;;;;;;14.23;5.23;;;;;;;;;;5135509;27;20415;-84
2021/01/23 01:32:55;;;;;;;13.03;5.20;;;;;;;;;;5135233;27;20038;-84
2021/01/23 01:35:20;;;;;;;11.23;5.60;;;;;;;;;;5135838;27;20061;-84
2021/01/23 01:37:46;;;;;;;17.70;5.97;;;;;;;;;;5134129;27;20028;-84
2021/01/23 01:40:11;;;;;;;9.93;5.53;;;;;;;;;;5133621;27;20432;-84
2021/01/23 01:42:36;;;;;;;13.00;5.67;;;;;;;;;;5133886;27;20019;-84
2021/01/23 01:45:03;;;;;;;11.40;6.63;;;;;;;;;;5135278;27;20351;-84
2021/01/23 01:47:28;;;;;;;10.40;4.80;;;;;;;;;;5135383;27;20039;-84
2021/01/23 01:49:55;;;;;;;14.53;6.33;;;;;;;;;;5133704;27;20026;-84
2021/01/23 01:52:20;;;;;;;11.60;6.33;;;;;;;;;;5133787;27;20023;-84
2021/01/23 01:54:46;;;;;;;11.67;6.03;;;;;;;;;;5135218;27;20019;-84
2021/01/23 01:57:11;;;;;;;9.80;5.37;;;;;;;;;;5133742;27;20019;-84
2021/01/23 01:59:36;;;;;;;13.50;6.23;;;;;;;;;;5133772;27;20479;-84
2021/01/23 02:02:07;;;;;;;13.07;6.03;;;;;;;;;;5134842;27;20156;-84
2021/01/23 02:04:48;;;;;;;10.80;5.97;;;;;;;;;;5133947;27;20474;-84
2021/01/23 02:07:45;;;;;;;11.90;5.73;;;;;;;;;;5133346;27;20015;-84
2021/01/23 02:10:17;;;;;;;13.20;6.27;;;;;;;;;;5088471;27;20118;-84
2021/01/23 02:13:02;;;;;;;13.67;6.17;;;;;;;;;;5119094;27;20548;-84
2021/01/23 02:15:28;;;;;;;12.63;6.20;;;;;;;;;;5131285;27;20347;-84
2021/01/23 02:17:58;;;;;;;12.97;5.80;;;;;;;;;;5125487;27;20064;-84
2021/01/23 02:20:41;;;;;;;14.00;6.23;;;;;;;;;;5134489;27;20082;-84
2021/01/23 02:23:15;;;;;;;12.37;6.83;;;;;;;;;;5134649;27;20458;-84
2021/01/23 02:25:58;;;;;;;12.90;5.73;;;;;;;;;;5132914;27;20019;-84
2021/01/23 02:28:44;;;;;;;11.57;6.53;;;;;;;;;;5133147;27;20030;-84
2021/01/23 02:31:12;;;;;;;13.30;6.30;;;;;;;;;;5091617;27;20039;-84
2021/01/23 02:33:38;;;;;;;14.73;6.70;;;;;;;;;;5132811;27;20015;-84
2021/01/23 02:36:04;;;;;;;14.47;6.40;;;;;;;;;;5132891;27;20030;-84
2021/01/23 02:38:31;;;;;;;14.00;7.30;;;;;;;;;;5132867;27;20026;-84
2021/01/23 02:40:56;;;;;;;12.63;7.00;;;;;;;;;;5132984;27;20026;-84
2021/01/23 02:43:21;;;;;;;14.83;7.33;;;;;;;;;;5132736;27;20015;-84
2021/01/23 02:45:47;;;;;;;15.47;7.03;;;;;;;;;;5132996;27;20098;-84
2021/01/23 02:48:13;;;;;;;12.97;7.07;;;;;;;;;;5134158;27;20042;-84
2021/01/23 02:50:38;;;;;;;14.93;7.50;;;;;;;;;;5133886;27;20015;-84
2021/01/23 02:53:07;;;;;;;14.37;7.10;;;;;;;;;;5132830;27;20027;-84
2021/01/23 02:55:33;;;;;;;11.90;6.20;;;;;;;;;;5132684;27;20023;-84
2021/01/23 02:58:01;;;;;;;14.67;7.70;;;;;;;;;;5132707;27;20029;-84
2021/01/23 03:00:27;;;;;;;12.87;6.87;;;;;;;;;;5132484;27;20061;-84
2021/01/23 03:02:56;;;;;;;16.27;7.63;;;;;;;;;;5132647;27;20015;-84
2021/01/23 03:05:29;;;;;;;12.80;6.80;;;;;;;;;;5134009;27;20098;-84
2021/01/23 03:07:55;;;;;;;12.50;6.80;;;;;;;;;;5119817;27;20505;-84
2021/01/23 03:10:37;;;;;;;12.50;6.87;;;;;;;;;;5132951;27;20102;-84
2021/01/23 03:13:03;;;;;;;13.55;6.70;;;;;;;;;;5117565;27;20430;-84
2021/01/23 03:15:28;;;;;;;14.73;6.00;;;;;;;;;;5133234;27;20090;-84
2021/01/23 03:17:53;;;;;;;26.27;7.17;;;;;;;;;;5131369;27;20011;-84
2021/01/23 03:20:18;;;;;;;11.20;5.90;;;;;;;;;;5131302;27;20015;-84
2021/01/23 03:22:43;;;;;;;12.27;6.03;;;;;;;;;;5132536;27;20438;-84
2021/01/23 03:25:09;;;;;;;15.40;6.17;;;;;;;;;;5131044;27;20410;-84
2021/01/23 03:27:34;;;;;;;16.07;5.87;;;;;;;;;;5130913;27;20034;-84
2021/01/23 03:29:59;;;;;;;13.80;6.43;;;;;;;;;;5131192;27;20027;-84
2021/01/23 03:32:24;;;;;;;11.97;6.00;;;;;;;;;;5132308;27;20351;-84
2021/01/23 03:34:50;;;;;;;15.57;5.90;;;;;;;;;;5130813;27;20036;-85
2021/01/23 03:37:15;;;;;;;10.67;5.60;;;;;;;;;;5132485;27;20011;-85
2021/01/23 03:39:40;;;;;;;15.00;6.03;;;;;;;;;;5132194;27;20458;-84
2021/01/23 03:42:05;;;;;;;15.03;6.70;;;;;;;;;;5133043;27;20390;-84
2021/01/23 03:44:31;;;;;;;12.90;6.17;;;;;;;;;;5132107;27;20027;-84
2021/01/23 03:46:56;;;;;;;11.23;6.03;;;;;;;;;;5131779;27;20041;-84
2021/01/23 03:49:21;;;;;;;13.70;5.70;;;;;;;;;;5131606;28;20015;-84
2021/01/23 03:51:46;;;;;;;12.47;6.20;;;;;;;;;;5131425;27;20027;-84
2021/01/23 03:54:11;;;;;;;10.93;5.40;;;;;;;;;;5131686;28;20019;-84
2021/01/23 03:56:36;;;;;;;9.53;5.97;;;;;;;;;;5131582;28;20407;-84
2021/01/23 03:59:02;;;;;;;14.83;6.47;;;;;;;;;;5132324;28;20023;-84
2021/01/23 04:01:27;;;;;;;13.37;6.63;;;;;;;;;;5131591;28;20046;-84
2021/01/23 04:03:52;;;;;;;14.27;7.17;;;;;;;;;;5131421;28;20453;-84
2021/01/23 04:06:17;;;;;;;19.70;7.47;;;;;;;;;;5131787;28;20109;-84
2021/01/23 04:08:42;;;;;;;19.80;7.30;;;;;;;;;;5132965;28;20106;-84
2021/01/23 04:11:08;;;;;;;21.43;7.43;;;;;;;;;;5131524;28;20019;-84
2021/01/23 04:13:33;;;;;;;19.27;7.47;;;;;;;;;;5132633;28;20023;-84
2021/01/23 04:15:58;;;;;;;11.33;6.87;;;;;;;;;;5131483;28;20110;-84
2021/01/23 04:18:23;;;;;;;18.10;7.83;;;;;;;;;;5131563;28;20019;-84
2021/01/23 04:20:49;;;;;;;17.07;7.00;;;;;;;;;;5131467;28;20029;-84
2021/01/23 04:23:14;;;;;;;12.43;6.77;;;;;;;;;;5131568;28;20126;-84
2021/01/23 04:25:39;;;;;;;15.97;7.37;;;;;;;;;;5132811;28;20106;-84
2021/01/23 04:28:05;;;;;;;14.50;6.37;;;;;;;;;;5131285;28;20038;-84
2021/01/23 04:30:30;;;;;;;13.60;5.33;;;;;;;;;;5131515;28;20394;-84
2021/01/23 04:32:55;;;;;;;12.63;5.97;;;;;;;;;;5130930;28;20034;-84
2021/01/23 04:35:20;;;;;;;13.03;6.30;;;;;;;;;;5135276;27;20084;-85
2021/01/23 04:37:46;;;;;;;15.50;6.67;;;;;;;;;;5135313;27;20030;-84
2021/01/23 04:40:11;;;;;;;16.70;6.27;;;;;;;;;;5136593;27;20007;-84
2021/01/23 04:42:43;;;;;;;16.37;6.80;;;;;;;;;;5136524;27;20011;-84
2021/01/23 04:45:09;;;;;;;16.65;6.68;;;;;;;;;;5135112;27;20026;-84
2021/01/23 04:47:34;;;;;;;13.40;5.90;;;;;;;;;;5135153;27;20031;-84
2021/01/23 04:50:00;;;;;;;14.20;6.30;;;;;;;;;;5136546;27;20026;-84
2021/01/23 04:52:25;;;;;;;13.40;6.93;;;;;;;;;;5135121;27;20481;-84
2021/01/23 04:54:50;;;;;;;16.37;8.00;;;;;;;;;;5136449;27;20025;-84
2021/01/23 04:57:15;;;;;;;15.73;6.87;;;;;;;;;;5134660;27;20576;-84
2021/01/23 04:59:40;;;;;;;15.13;6.50;;;;;;;;;;5134829;27;20027;-84
2021/01/23 05:02:19;;;;;;;15.97;7.60;;;;;;;;;;5134902;27;20007;-84
2021/01/23 05:04:45;;;;;;;18.70;7.17;;;;;;;;;;5134947;27;20025;-84
2021/01/23 05:07:11;;;;;;;14.47;6.77;;;;;;;;;;5134604;27;20026;-84
2021/01/23 05:09:36;;;;;;;16.60;7.37;;;;;;;;;;5134625;27;20031;-84
2021/01/23 05:12:02;;;;;;;14.03;7.73;;;;;;;;;;5134533;27;20054;-84
2021/01/23 05:14:27;;;;;;;16.93;7.40;;;;;;;;;;5134656;27;20106;-84
2021/01/23 05:16:52;;;;;;;14.87;7.80;;;;;;;;;;5134395;27;20015;-84
2021/01/23 05:19:18;;;;;;;20.33;8.07;;;;;;;;;;5134476;27;20024;-84
2021/01/23 05:21:59;;;;;;;19.00;7.53;;;;;;;;;;5134471;27;20012;-84
2021/01/23 05:24:24;;;;;;;15.53;7.63;;;;;;;;;;5134181;27;20047;-84
2021/01/23 05:26:55;;;;;;;15.87;7.20;;;;;;;;;;5134644;27;20371;-84
2021/01/23 05:29:21;;;;;;;14.53;7.20;;;;;;;;;;5133299;27;20019;-84
2021/01/23 05:31:46;;;;;;;18.83;7.13;;;;;;;;;;5133315;27;20435;-84
2021/01/23 05:34:31;;;;;;;20.87;7.80;;;;;;;;;;5133834;27;20482;-84
2021/01/23 05:36:56;;;;;;;15.17;7.30;;;;;;;;;;5115833;27;20015;-84
2021/01/23 05:39:41;;;;;;;16.73;6.97;;;;;;;;;;5126706;27;20094;-84
2021/01/23 05:42:07;;;;;;;15.37;7.07;;;;;;;;;;5132761;27;20026;-84
2021/01/23 05:44:32;;;;;;;16.43;7.33;;;;;;;;;;5133936;27;20039;-84
2021/01/23 05:46:57;;;;;;;14.93;7.23;;;;;;;;;;5133280;27;20023;-84
2021/01/23 05:49:23;;;;;;;15.77;7.10;;;;;;;;;;5134599;27;20559;-84
2021/01/23 05:51:48;;;;;;;13.73;6.87;;;;;;;;;;5132490;27;20027;-84
2021/01/23 05:54:13;;;;;;;13.43;6.60;;;;;;;;;;5132503;27;20031;-84
2021/01/23 05:56:40;;;;;;;17.67;6.97;;;;;;;;;;5135051;27;20470;-84
2021/01/23 05:59:05;;;;;;;18.77;7.47;;;;;;;;;;5135365;27;20019;-84
2021/01/23 06:01:32;;;;;;;15.17;7.30;;;;;;;;;;5133644;27;20019;-84
2021/01/23 06:03:58;;;;;;;17.23;7.63;;;;;;;;;;5134809;27;20462;-84
2021/01/23 06:06:23;;;;;;;15.33;7.00;;;;;;;;;;5134570;27;20046;-84
2021/01/23 06:08:49;;;;;;;21.47;8.07;;;;;;;;;;5134813;27;20390;-84
2021/01/23 06:11:17;;;;;;;13.77;6.80;;;;;;;;;;5133528;27;20507;-84
2021/01/23 06:13:42;;;;;;;19.23;6.77;;;;;;;;;;5133347;27;20042;-84
2021/01/23 06:16:28;;;;;;;15.13;7.30;;;;;;;;;;5134899;27;20015;-84
2021/01/23 06:18:53;;;;;;;14.60;7.37;;;;;;;;;;5133255;27;20118;-84
2021/01/23 06:21:18;;;;;;;15.27;7.33;;;;;;;;;;5134817;27;20101;-84
2021/01/23 06:23:48;;;;;;;14.43;5.97;;;;;;;;;;5134620;27;20031;-84
2021/01/23 06:26:13;;;;;;;16.00;6.80;;;;;;;;;;5133385;27;20125;-84
2021/01/23 06:28:38;;;;;;;15.33;7.00;;;;;;;;;;5134899;27;20019;-84
2021/01/23 06:31:21;;;;;;;20.83;7.10;;;;;;;;;;5132970;27;20141;-84
2021/01/23 06:33:47;;;;;;;12.73;6.70;;;;;;;;;;5121163;27;20023;-84
2021/01/23 06:36:12;;;;;;;12.43;5.73;;;;;;;;;;5134170;27;20132;-84
2021/01/23 06:38:37;;;;;;;15.05;6.05;;;;;;;;;;5133181;27;20121;-84
2021/01/23 06:41:21;;;;;;;11.63;6.00;;;;;;;;;;5133438;27;20060;-84
2021/01/23 06:44:05;;;;;;;15.63;6.90;;;;;;;;;;5133491;27;20035;-84
2021/01/23 06:46:30;;;;;;;15.57;6.80;;;;;;;;;;5127554;27;20015;-84
2021/01/23 06:49:03;;;;;;;10.63;5.90;;;;;;;;;;5132697;27;20422;-84
2021/01/23 06:51:28;;;;;;;12.80;6.03;;;;;;;;;;5134176;27;20027;-84
2021/01/23 06:54:29;;;;;;;19.13;6.73;;;;;;;;;;5132625;27;20045;-84
2021/01/23 06:56:54;;;;;;;19.43;7.17;;;;;;;;;;5053313;28;20021;-84
2021/01/23 06:59:21;;;;;;;17.67;6.67;;;;;;;;;;5108072;27;20030;-84
2021/01/23 07:01:46;;;;;;;16.80;5.73;;;;;;;;;;5132087;27;20015;-84
2021/01/23 07:04:11;;;;;;;17.10;6.07;;;;;;;;;;5132706;27;20114;-84
2021/01/23 07:06:37;;;;;;;16.00;6.50;;;;;;;;;;5132632;27;20019;-84
2021/01/23 07:09:02;;;;;;;12.80;6.23;;;;;;;;;;5132546;27;20019;-84
2021/01/23 07:11:27;;;;;;;23.60;7.13;;;;;;;;;;5132259;27;20438;-84
2021/01/23 07:13:57;;;;;;;14.90;6.33;;;;;;;;;;5131902;27;20019;-84
2021/01/23 07:16:26;;;;;;;12.73;6.17;;;;;;;;;;5132463;27;20011;-83
2021/01/23 07:18:52;;;;;;;21.60;7.30;;;;;;;;;;5132376;27;20439;-84
2021/01/23 07:21:18;;;;;;;15.50;5.93;;;;;;;;;;5132300;27;20021;-84
2021/01/23 07:23:43;;;;;;;14.13;6.57;;;;;;;;;;5132350;27;20102;-84
2021/01/23 07:26:10;;;;;;;14.73;6.53;;;;;;;;;;5131635;27;20087;-84
2021/01/23 07:28:35;;;;;;;15.07;6.77;;;;;;;;;;5129755;27;20023;-84
2021/01/23 07:31:15;;;;;;;14.57;6.27;;;;;;;;;;5132296;27;20465;-84
2021/01/23 07:33:40;;;;;;;15.20;6.30;;;;;;;;;;5133437;27;20027;-84
2021/01/23 07:36:06;;;;;;;16.03;6.27;;;;;;;;;;5132213;27;20011;-84
2021/01/23 07:38:31;;;;;;;12.33;6.50;;;;;;;;;;5132095;27;20054;-84
2021/01/23 07:40:56;;;;;;;11.93;5.80;;;;;;;;;;5132283;27;20025;-85
2021/01/23 07:43:22;;;;;;;14.40;5.77;;;;;;;;;;5131850;27;20101;-85
2021/01/23 07:45:47;;;;;;;11.50;5.50;;;;;;;;;;5132123;27;20031;-85
2021/01/23 07:48:12;;;;;;;15.37;6.07;;;;;;;;;;5130529;27;20026;-85
2021/01/23 07:50:38;;;;;;;15.37;5.40;;;;;;;;;;5130916;27;20034;-85
2021/01/23 07:53:12;;;;;;;14.00;5.03;;;;;;;;;;5130062;27;20023;-85
2021/01/23 07:55:38;;;;;;;15.50;5.80;;;;;;;;;;5130245;28;20023;-84
2021/01/23 07:58:09;;;;;;;12.27;4.87;;;;;;;;;;5131483;28;20029;-85
2021/01/23 08:00:35;;;;;;;15.25;5.72;;;;;;;;;;5131497;28;20023;-85
2021/01/23 08:03:01;;;;;;;12.23;5.00;;;;;;;;;;5131206;28;20064;-84
2021/01/23 08:05:45;;;;;;;16.67;5.50;;;;;;;;;;5130993;28;20024;-85
2021/01/23 08:08:11;;;;;;;11.50;5.40;;;;;;;;;;5133906;27;20038;-85
2021/01/23 08:10:37;;;;;;;9.80;5.17;;;;;;;;;;5134544;27;20049;-85
2021/01/23 08:13:06;;;;;;;12.30;5.63;;;;;;;;;;5136497;27;20089;-85
2021/01/23 08:15:31;;;;;;;14.67;5.37;;;;;;;;;;5135325;27;20020;-85
2021/01/23 08:17:57;;;;;;;12.17;5.53;;;;;;;;;;5134303;27;20378;-85
2021/01/23 08:20:33;;;;;;;14.57;5.60;;;;;;;;;;5134724;27;20058;-85
2021/01/23 08:23:06;;;;;;;14.17;5.83;;;;;;;;;;5133470;27;20023;-84
2021/01/23 08:25:32;;;;;;;20.70;5.83;;;;;;;;;;5132323;27;20023;-85
2021/01/23 08:27:58;;;;;;;12.23;5.60;;;;;;;;;;5133785;27;20094;-85
2021/01/23 08:30:23;;;;;;;9.20;5.00;;;;;;;;;;5136556;27;20058;-85
2021/01/23 08:32:50;;;;;;;15.23;5.93;;;;;;;;;;5135169;27;20026;-85
2021/01/23 08:35:15;;;;;;;12.17;5.17;;;;;;;;;;5134946;27;20042;-85
2021/01/23 08:37:41;;;;;;;10.50;5.20;;;;;;;;;;5134945;27;20031;-85
2021/01/23 08:40:06;;;;;;;11.23;4.90;;;;;;;;;;5133916;27;20023;-85
2021/01/23 08:42:31;;;;;;;11.87;4.80;;;;;;;;;;5136018;27;20015;-85
2021/01/23 08:44:57;;;;;;;16.90;4.97;;;;;;;;;;5134526;27;20019;-85
2021/01/23 08:47:22;;;;;;;13.30;4.90;;;;;;;;;;5134695;27;20099;-85
2021/01/23 08:49:47;;;;;;;16.57;4.50;;;;;;;;;;5134365;27;20015;-85
2021/01/23 08:52:12;;;;;;;12.47;4.47;;;;;;;;;;5136235;27;20071;-85
2021/01/23 08:54:39;;;;;;;13.50;4.97;;;;;;;;;;5135077;27;20478;-85
2021/01/23 08:57:05;;;;;;;18.70;5.50;;;;;;;;;;5134797;27;20017;-85
2021/01/23 08:59:30;;;;;;;13.87;4.80;;;;;;;;;;5136876;27;20102;-85
2021/01/23 09:01:55;;;;;;;12.93;5.10;;;;;;;;;;5134091;27;20057;-85
2021/01/23 09:04:20;;;;;;;14.00;4.90;;;;;;;;;;5134611;27;20026;-85
2021/01/23 09:06:45;;;;;;;18.13;5.27;;;;;;;;;;5134713;27;20015;-85
2021/01/23 09:09:11;;;;;;;13.63;5.03;;;;;;;;;;5134757;27;20019;-85
2021/01/23 09:11:37;;;;;;;14.33;4.93;;;;;;;;;;5136131;27;20026;-85
2021/01/23 09:14:02;;;;;;;15.53;4.80;;;;;;;;;;5134377;27;20474;-85
2021/01/23 09:16:27;;;;;;;15.27;6.53;;;;;;;;;;5135879;27;20447;-85
2021/01/23 09:18:53;;;;;;;11.77;4.23;;;;;;;;;;5134426;27;20011;-85
2021/01/23 09:21:18;;;;;;;13.17;4.43;;;;;;;;;;5134232;27;20462;-85
2021/01/23 09:23:43;;;;;;;14.20;5.03;;;;;;;;;;5133269;27;20026;-85
2021/01/23 09:26:09;;;;;;;15.77;5.10;;;;;;;;;;5133478;27;20029;-85
2021/01/23 09:28:34;;;;;;;11.80;4.70;;;;;;;;;;5132684;27;20031;-85
2021/01/23 09:30:59;;;;;;;14.03;4.80;;;;;;;;;;5132554;27;20047;-85
2021/01/23 09:33:24;;;;;;;21.97;5.23;;;;;;;;;;5132206;27;20412;-85
2021/01/23 09:35:50;;;;;;;11.07;5.10;;;;;;;;;;5131964;27;20044;-85
2021/01/23 09:38:15;;;;;;;9.53;5.07;;;;;;;;;;5132076;27;20566;-85
2021/01/23 09:40:40;;;;;;;16.50;4.90;;;;;;;;;;5132474;27;20469;-85
2021/01/23 09:43:05;;;;;;;11.83;4.80;;;;;;;;;;5131853;27;20023;-85
2021/01/23 09:45:30;;;;;;;9.73;4.50;;;;;;;;;;5132224;27;20019;-85
2021/01/23 09:47:56;;;;;;;11.07;4.47;;;;;;;;;;5134107;27;20481;-85
2021/01/23 09:50:22;;;;;;;17.37;4.77;;;;;;;;;;5133291;27;20408;-85
2021/01/23 09:52:47;;;;;;;12.30;4.40;;;;;;;;;;5133804;27;20030;-85
2021/01/23 09:55:12;;;;;;;12.67;4.37;;;;;;;;;;5133826;27;20027;-85
2021/01/23 09:57:38;;;;;;;14.13;4.00;;;;;;;;;;5133897;27;20015;-85
2021/01/23 10:00:04;;;;;;;11.03;4.07;;;;;;;;;;5134916;27;20102;-85
2021/01/23 10:02:33;;;;;;;16.83;4.43;;;;;;;;;;5134782;27;20034;-85
2021/01/23 10:04:58;;;;;;;9.17;3.37;;;;;;;;;;5133455;27;20026;-85
2021/01/23 10:07:23;;;;;;;8.17;3.60;;;;;;;;;;5133401;27;20454;-85
2021/01/23 10:09:49;;;;;;;12.93;4.27;;;;;;;;;;5133425;27;20079;-85
2021/01/23 10:12:14;;;;;;;16.73;4.10;;;;;;;;;;5133671;27;20479;-85
2021/01/23 10:14:39;;;;;;;13.90;4.73;;;;;;;;;;5133634;27;20468;-85
2021/01/23 10:17:05;;;;;;;10.07;3.90;;;;;;;;;;5133369;27;20007;-85
2021/01/23 10:19:30;;;;;;;11.73;3.90;;;;;;;;;;5133346;27;20076;-85
2021/01/23 10:21:57;;;;;;;11.73;3.53;;;;;;;;;;5133291;27;20420;-85
2021/01/23 10:24:23;;;;;;;12.40;4.43;;;;;;;;;;5133031;27;20015;-84
2021/01/23 10:26:48;;;;;;;10.77;3.90;;;;;;;;;;5132872;27;20423;-85
2021/01/23 10:29:13;;;;;;;11.67;4.40;;;;;;;;;;5134643;27;20030;-85
2021/01/23 10:31:38;;;;;;;12.93;4.07;;;;;;;;;;5132481;27;20750;-85
2021/01/23 10:34:05;;;;;;;14.30;3.80;;;;;;;;;;5132962;27;20038;-85
2021/01/23 10:36:30;;;;;;;13.73;4.07;;;;;;;;;;5132634;27;20037;-84
2021/01/23 10:38:55;;;;;;;12.90;3.50;;;;;;;;;;5134449;27;20019;-86
2021/01/23 10:41:20;;;;;;;10.10;3.73;;;;;;;;;;5132743;27;20023;-85
2021/01/23 10:43:46;;;;;;;19.40;3.70;;;;;;;;;;5134365;27;20076;-85
2021/01/23 10:46:11;;;;;;;12.17;3.80;;;;;;;;;;5132755;27;20018;-85
2021/01/23 10:48:36;;;;;;;12.60;3.30;;;;;;;;;;5132456;27;20023;-85
2021/01/23 10:51:02;;;;;;;18.50;4.00;;;;;;;;;;5132803;27;20644;-85
2021/01/23 10:53:27;;;;;;;17.70;3.40;;;;;;;;;;5132387;27;20564;-85
2021/01/23 10:55:52;;;;;;;10.73;3.40;;;;;;;;;;5132528;27;20015;-85
2021/01/23 10:58:17;;;;;;;9.67;2.87;;;;;;;;;;5132372;27;20069;-85
2021/01/23 11:00:42;;;;;;;10.27;3.10;;;;;;;;;;5132626;27;20465;-85
2021/01/23 11:03:08;;;;;;;10.27;3.07;;;;;;;;;;5132685;27;20019;-85
2021/01/23 11:05:33;;;;;;;9.57;3.50;;;;;;;;;;5131662;27;20023;-85
2021/01/23 11:07:58;;;;;;;11.53;3.90;;;;;;;;;;5132377;27;20102;-85
2021/01/23 11:10:23;;;;;;;13.40;3.43;;;;;;;;;;5132297;27;20411;-85
2021/01/23 11:12:48;;;;;;;7.67;3.60;;;;;;;;;;5133388;27;20473;-85
2021/01/23 11:15:14;;;;;;;12.23;4.43;;;;;;;;;;5132196;27;20481;-85
2021/01/23 11:17:39;;;;;;;20.93;5.90;;;;;;;;;;5130497;27;20015;-85
2021/01/23 11:20:05;;;;;;;10.30;3.23;;;;;;;;;;5133238;27;20484;-85
2021/01/23 11:22:31;;;;;;;10.77;4.03;;;;;;;;;;5132746;27;20023;-85
2021/01/23 11:24:56;;;;;;;19.37;4.80;;;;;;;;;;5131777;27;20033;-85
2021/01/23 11:27:21;;;;;;;10.13;3.60;;;;;;;;;;5131407;27;20023;-85
2021/01/23 11:29:46;;;;;;;7.10;2.80;;;;;;;;;;5133006;27;20094;-85
2021/01/23 11:32:11;;;;;;;17.37;3.53;;;;;;;;;;5131443;27;20055;-85
2021/01/23 11:34:37;;;;;;;12.87;3.70;;;;;;;;;;5131879;27;20027;-85
2021/01/23 11:37:02;;;;;;;11.47;3.73;;;;;;;;;;5131692;27;20015;-84
2021/01/23 11:39:27;;;;;;;10.00;3.20;;;;;;;;;;5131663;27;20110;-85
2021/01/23 11:41:52;;;;;;;8.87;3.20;;;;;;;;;;5131085;27;20015;-85
2021/01/23 11:44:18;;;;;;;7.07;3.57;;;;;;;;;;5130285;27;20316;-85
2021/01/23 11:46:43;;;;;;;11.93;4.10;;;;;;;;;;5131930;27;20481;-85
2021/01/23 11:49:08;;;;;;;5.70;2.40;;;;;;;;;;5130908;27;20031;-85
2021/01/23 11:51:33;;;;;;;17.77;3.77;;;;;;;;;;5131138;27;20022;-85
2021/01/23 11:53:59;;;;;;;10.67;3.40;;;;;;;;;;5130876;27;20508;-85
2021/01/23 11:56:24;;;;;;;6.57;2.50;;;;;;;;;;5130247;28;20820;-86
2021/01/23 11:58:50;;;;;;;9.27;2.90;;;;;;;;;;5131501;28;20102;-86
2021/01/23 12:01:15;;;;;;;10.00;3.23;;;;;;;;;;5131032;28;20114;-85
2021/01/23 12:03:41;;;;;;;12.20;2.90;;;;;;;;;;5131225;28;20055;-85
2021/01/23 12:06:06;;;;;;;15.97;3.73;;;;;;;;;;5131579;28;20019;-86
2021/01/23 12:08:31;;;;;;;9.40;2.40;;;;;;;;;;5130827;28;20374;-86
2021/01/23 12:10:59;;;;;;;11.37;2.90;;;;;;;;;;5131379;28;20106;-86
2021/01/23 12:13:24;;;;;;;12.83;2.03;;;;;;;;;;5131308;28;20031;-85
2021/01/23 12:15:49;;;;;;;6.93;2.60;;;;;;;;;;5131417;28;20019;-86
2021/01/23 12:18:14;;;;;;;10.87;2.50;;;;;;;;;;5131219;28;20015;-85
2021/01/23 12:20:40;;;;;;;8.77;2.33;;;;;;;;;;5132226;28;20148;-85
2021/01/23 12:23:05;;;;;;;8.73;3.17;;;;;;;;;;5131136;28;20458;-86
2021/01/23 12:25:30;;;;;;;6.97;2.50;;;;;;;;;;5131427;28;20022;-86
2021/01/23 12:27:55;;;;;;;7.37;2.20;;;;;;;;;;5131177;28;20458;-86
2021/01/23 12:30:21;;;;;;;9.50;2.33;;;;;;;;;;5132337;28;20034;-86
2021/01/23 12:32:46;;;;;;;4.63;1.80;;;;;;;;;;5130986;28;20015;-84
2021/01/23 12:35:12;;;;;;;4.97;1.23;;;;;;;;;;5132134;28;20078;-86
2021/01/23 12:37:38;;;;;;;6.90;1.57;;;;;;;;;;5131241;28;20015;-86
2021/01/23 12:40:04;;;;;;;11.27;2.30;;;;;;;;;;5131076;28;20019;-88
2021/01/23 12:42:30;;;;;;;12.77;2.20;;;;;;;;;;5130936;28;20076;-86
2021/01/23 12:44:55;;;;;;;7.90;2.23;;;;;;;;;;5130968;28;20015;-86
2021/01/23 12:47:20;;;;;;;11.53;2.20;;;;;;;;;;5131356;28;20023;-85
2021/01/23 12:49:45;;;;;;;7.87;2.20;;;;;;;;;;5131460;28;20110;-86
2021/01/23 12:52:10;;;;;;;4.27;1.93;;;;;;;;;;5130576;28;20038;-86
2021/01/23 12:54:36;;;;;;;9.67;2.10;;;;;;;;;;5132523;27;20030;-86
2021/01/23 12:57:01;;;;;;;11.37;2.57;;;;;;;;;;5134645;27;20019;-86
2021/01/23 12:59:26;;;;;;;11.17;2.77;;;;;;;;;;5136295;27;20342;-86
2021/01/23 13:01:51;;;;;;;6.20;2.20;;;;;;;;;;5134780;27;20466;-86
2021/01/23 13:04:17;;;;;;;13.43;2.40;;;;;;;;;;5133672;27;20064;-86
2021/01/23 13:06:42;;;;;;;5.97;2.27;;;;;;;;;;5133853;27;20027;-87
2021/01/23 13:09:07;;;;;;;10.03;2.37;;;;;;;;;;5134279;27;20050;-87
2021/01/23 13:11:33;;;;;;;12.23;2.40;;;;;;;;;;5134475;27;20075;-87
2021/01/23 13:13:58;;;;;;;9.40;2.83;;;;;;;;;;5134504;27;20020;-86
2021/01/23 13:16:25;;;;;;;8.20;1.93;;;;;;;;;;5133021;27;20019;-86
2021/01/23 13:18:51;;;;;;;7.10;2.00;;;;;;;;;;5134185;27;20381;-86
2021/01/23 13:21:16;;;;;;;9.83;1.83;;;;;;;;;;5133529;27;20019;-86
2021/01/23 13:23:42;;;;;;;15.70;2.40;;;;;;;;;;5133899;27;20046;-86
2021/01/23 13:26:08;;;;;;;7.90;1.60;;;;;;;;;;5165081;27;20026;-86
2021/01/23 13:28:33;;;;;;;9.17;2.33;;;;;;;;;;5133500;27;20419;-86
2021/01/23 13:30:59;;;;;;;11.77;2.10;;;;;;;;;;5133838;27;20026;-86
2021/01/23 13:33:24;;;;;;;8.93;2.07;;;;;;;;;;5132798;27;20035;-86
2021/01/23 13:35:49;;;;;;;10.13;2.87;;;;;;;;;;5134086;27;20019;-86
2021/01/23 13:38:15;;;;;;;10.77;1.90;;;;;;;;;;5119724;27;20018;-86
2021/01/23 13:40:40;;;;;;;6.30;1.50;;;;;;;;;;5133167;27;20019;-86
2021/01/23 13:43:05;;;;;;;5.83;2.23;;;;;;;;;;5133931;27;20072;-86
2021/01/23 13:45:31;;;;;;;12.20;2.20;;;;;;;;;;5133921;27;20050;-86
2021/01/23 13:47:56;;;;;;;9.23;2.10;;;;;;;;;;5134106;27;20027;-86
2021/01/23 13:50:21;;;;;;;10.63;1.97;;;;;;;;;;5132867;27;20110;-86
2021/01/23 13:52:46;;;;;;;5.07;1.70;;;;;;;;;;5134140;27;20022;-86
2021/01/23 13:55:12;;;;;;;4.83;1.57;;;;;;;;;;5133702;27;20017;-86
2021/01/23 13:57:37;;;;;;;5.93;1.80;;;;;;;;;;5134811;27;20031;-85
2021/01/23 14:00:03;;;;;;;12.27;1.60;;;;;;;;;;5131530;27;20091;-85
2021/01/23 14:02:28;;;;;;;5.73;1.50;;;;;;;;;;5125414;27;20414;-86
2021/01/23 14:04:53;;;;;;;12.47;1.40;;;;;;;;;;5129491;27;20139;-87
2021/01/23 14:07:18;;;;;;;10.77;1.60;;;;;;;;;;5129481;27;20011;-86
2021/01/23 14:09:44;;;;;;;5.37;1.27;;;;;;;;;;5129202;27;20306;-86
2021/01/23 14:12:09;;;;;;;11.63;1.97;;;;;;;;;;5133260;27;20416;-87
2021/01/23 14:14:36;;;;;;;9.80;1.73;;;;;;;;;;5128087;27;20023;-86
2021/01/23 14:17:01;;;;;;;8.90;1.40;;;;;;;;;;5132144;27;20011;-86
2021/01/23 14:19:26;;;;;;;8.07;1.33;;;;;;;;;;5121343;27;20026;-87
2021/01/23 14:21:51;;;;;;;6.97;1.80;;;;;;;;;;5127211;27;20022;-86
2021/01/23 14:24:16;;;;;;;7.90;2.13;;;;;;;;;;5132361;27;20431;-85
2021/01/23 14:26:44;;;;;;;4.77;1.70;;;;;;;;;;5124685;27;20110;-85